sensor_id;sensor_type;location;lat;lon;timestamp;pressure;altitude;pressure_sealevel;temperature;humidity
11971;BME280;6045;42.682;23.294;2023-08-08T00:00:21;94508.94;;;19.91;77.76
11971;BME280;6045;42.682;23.294;2023-08-08T00:02:48;94520.34;;;19.88;76.31
11971;BME280;6045;42.682;23.294;2023-08-08T00:05:17;94523.72;;;19.80;77.01
11971;BME280;6045;42.682;23.294;2023-08-08T00:07:44;94523.38;;;19.63;74.81
11971;BME280;6045;42.682;23.294;2023-08-08T00:10:11;94521.28;;;19.55;76.25
11971;BME280;6045;42.682;23.294;2023-08-08T00:12:38;94513.72;;;19.52;76.03
11971;BME280;6045;42.682;23.294;2023-08-08T00:15:07;94514.81;;;19.51;76.78
11971;BME280;6045;42.682;23.294;2023-08-08T00:17:35;94508.19;;;19.38;75.16
11971;BME280;6045;42.682;23.294;2023-08-08T00:20:02;94516.59;;;19.32;76.44
11971;BME280;6045;42.682;23.294;2023-08-08T00:22:29;94518.84;;;19.25;77.29
11971;BME280;6045;42.682;23.294;2023-08-08T00:24:56;94518.31;;;19.23;77.37
11971;BME280;6045;42.682;23.294;2023-08-08T00:27:23;94516.59;;;19.32;77.24
11971;BME280;6045;42.682;23.294;2023-08-08T00:29:50;94523.69;;;19.28;77.80
11971;BME280;6045;42.682;23.294;2023-08-08T00:32:20;94533.25;;;19.20;76.46
11971;BME280;6045;42.682;23.294;2023-08-08T00:34:46;94536.38;;;19.03;76.45
11971;BME280;6045;42.682;23.294;2023-08-08T00:37:13;94527.81;;;18.91;76.79
11971;BME280;6045;42.682;23.294;2023-08-08T00:39:40;94531.41;;;18.82;77.56
11971;BME280;6045;42.682;23.294;2023-08-08T00:42:11;94531.47;;;18.77;76.61
11971;BME280;6045;42.682;23.294;2023-08-08T00:44:38;94531.72;;;18.75;76.42
11971;BME280;6045;42.682;23.294;2023-08-08T00:47:06;94536.34;;;18.75;77.12
11971;BME280;6045;42.682;23.294;2023-08-08T00:49:35;94548.34;;;18.64;75.10
11971;BME280;6045;42.682;23.294;2023-08-08T00:52:02;94545.47;;;18.50;76.87
11971;BME280;6045;42.682;23.294;2023-08-08T00:54:30;94551.41;;;18.52;78.24
11971;BME280;6045;42.682;23.294;2023-08-08T00:56:57;94540.31;;;18.43;75.80
11971;BME280;6045;42.682;23.294;2023-08-08T00:59:24;94541.69;;;18.41;77.21
11971;BME280;6045;42.682;23.294;2023-08-08T01:01:50;94552.53;;;18.46;78.38
11971;BME280;6045;42.682;23.294;2023-08-08T01:04:18;94544.38;;;18.51;78.83
11971;BME280;6045;42.682;23.294;2023-08-08T01:06:51;94548.69;;;18.52;79.60
11971;BME280;6045;42.682;23.294;2023-08-08T01:09:24;94554.78;;;18.24;75.97
11971;BME280;6045;42.682;23.294;2023-08-08T01:11:53;94555.13;;;18.07;78.95
11971;BME280;6045;42.682;23.294;2023-08-08T01:14:21;94562.53;;;17.87;77.88
11971;BME280;6045;42.682;23.294;2023-08-08T01:16:50;94561.69;;;17.91;79.37
11971;BME280;6045;42.682;23.294;2023-08-08T01:19:23;94560.91;;;17.81;78.80
11971;BME280;6045;42.682;23.294;2023-08-08T01:21:54;94565.78;;;17.78;79.35
11971;BME280;6045;42.682;23.294;2023-08-08T01:24:25;94560.94;;;17.75;79.30
11971;BME280;6045;42.682;23.294;2023-08-08T01:26:55;94556.88;;;17.78;79.98
11971;BME280;6045;42.682;23.294;2023-08-08T01:29:22;94559.31;;;17.80;77.61
11971;BME280;6045;42.682;23.294;2023-08-08T01:31:49;94566.34;;;17.75;78.48
11971;BME280;6045;42.682;23.294;2023-08-08T01:34:16;94579.34;;;17.68;78.59
11971;BME280;6045;42.682;23.294;2023-08-08T01:36:49;94579.06;;;17.65;78.20
11971;BME280;6045;42.682;23.294;2023-08-08T01:39:22;94576.94;;;17.57;79.05
11971;BME280;6045;42.682;23.294;2023-08-08T01:41:50;94596.09;;;17.45;78.10
11971;BME280;6045;42.682;23.294;2023-08-08T01:44:19;94593.44;;;17.40;80.06
11971;BME280;6045;42.682;23.294;2023-08-08T01:46:48;94595.56;;;17.38;80.86
11971;BME280;6045;42.682;23.294;2023-08-08T01:49:15;94595.06;;;17.16;80.10
11971;BME280;6045;42.682;23.294;2023-08-08T01:51:42;94598.31;;;17.23;80.55
11971;BME280;6045;42.682;23.294;2023-08-08T01:54:09;94591.84;;;17.19;80.24
11971;BME280;6045;42.682;23.294;2023-08-08T01:56:36;94602.09;;;17.02;80.31
11971;BME280;6045;42.682;23.294;2023-08-08T01:59:04;94611.53;;;17.09;80.47
11971;BME280;6045;42.682;23.294;2023-08-08T02:01:31;94613.72;;;17.02;81.07
11971;BME280;6045;42.682;23.294;2023-08-08T02:03:58;94623.41;;;17.08;82.51
11971;BME280;6045;42.682;23.294;2023-08-08T02:06:25;94617.19;;;17.08;82.33
11971;BME280;6045;42.682;23.294;2023-08-08T02:08:52;94618.31;;;17.12;82.07
11971;BME280;6045;42.682;23.294;2023-08-08T02:11:18;94609.09;;;17.23;81.41
11971;BME280;6045;42.682;23.294;2023-08-08T02:13:47;94620.44;;;17.40;81.55
11971;BME280;6045;42.682;23.294;2023-08-08T02:16:15;94617.19;;;17.48;82.00
11971;BME280;6045;42.682;23.294;2023-08-08T02:18:42;94628.81;;;17.39;78.69
11971;BME280;6045;42.682;23.294;2023-08-08T02:21:09;94625.03;;;17.40;80.28
11971;BME280;6045;42.682;23.294;2023-08-08T02:23:36;94631.22;;;17.45;78.68
11971;BME280;6045;42.682;23.294;2023-08-08T02:26:02;94629.34;;;17.41;79.09
11971;BME280;6045;42.682;23.294;2023-08-08T02:28:29;94639.63;;;17.39;80.10
11971;BME280;6045;42.682;23.294;2023-08-08T02:30:56;94645.28;;;17.27;80.02
11971;BME280;6045;42.682;23.294;2023-08-08T02:33:24;94640.16;;;17.21;80.64
11971;BME280;6045;42.682;23.294;2023-08-08T02:35:51;94641.53;;;17.28;82.24
11971;BME280;6045;42.682;23.294;2023-08-08T02:38:18;94630.69;;;17.43;81.35
11971;BME280;6045;42.682;23.294;2023-08-08T02:40:45;94631.53;;;17.54;80.71
11971;BME280;6045;42.682;23.294;2023-08-08T02:43:11;94643.66;;;17.46;79.99
11971;BME280;6045;42.682;23.294;2023-08-08T02:45:38;94648.53;;;17.39;80.41
11971;BME280;6045;42.682;23.294;2023-08-08T02:48:05;94658.53;;;17.39;81.13
11971;BME280;6045;42.682;23.294;2023-08-08T02:50:34;94659.91;;;17.16;79.55
11971;BME280;6045;42.682;23.294;2023-08-08T02:53:00;94656.09;;;17.17;80.43
11971;BME280;6045;42.682;23.294;2023-08-08T02:55:27;94657.47;;;17.09;81.52
11971;BME280;6045;42.682;23.294;2023-08-08T02:57:54;94669.06;;;17.10;81.58
11971;BME280;6045;42.682;23.294;2023-08-08T03:00:21;94670.69;;;17.11;80.87
11971;BME280;6045;42.682;23.294;2023-08-08T03:02:48;94679.03;;;16.99;80.94
11971;BME280;6045;42.682;23.294;2023-08-08T03:05:14;94681.19;;;16.87;82.79
11971;BME280;6045;42.682;23.294;2023-08-08T03:07:42;94672.00;;;16.93;81.86
11971;BME280;6045;42.682;23.294;2023-08-08T03:10:09;94659.88;;;17.01;83.24
11971;BME280;6045;42.682;23.294;2023-08-08T03:12:36;94659.88;;;17.11;82.66
11971;BME280;6045;42.682;23.294;2023-08-08T03:15:05;94672.31;;;17.22;83.13
11971;BME280;6045;42.682;23.294;2023-08-08T03:17:32;94676.66;;;17.23;81.60
11971;BME280;6045;42.682;23.294;2023-08-08T03:20:00;94678.28;;;17.19;80.51
11971;BME280;6045;42.682;23.294;2023-08-08T03:22:28;94676.63;;;17.18;80.99
11971;BME280;6045;42.682;23.294;2023-08-08T03:24:56;94676.38;;;17.25;80.18
11971;BME280;6045;42.682;23.294;2023-08-08T03:27:23;94679.06;;;17.25;80.46
11971;BME280;6045;42.682;23.294;2023-08-08T03:29:50;94676.09;;;17.16;79.29
11971;BME280;6045;42.682;23.294;2023-08-08T03:32:17;94682.59;;;17.25;81.97
11971;BME280;6045;42.682;23.294;2023-08-08T03:34:44;94681.50;;;17.11;79.52
11971;BME280;6045;42.682;23.294;2023-08-08T03:37:11;94671.75;;;17.00;81.05
11971;BME280;6045;42.682;23.294;2023-08-08T03:39:38;94680.13;;;17.03;81.03
11971;BME280;6045;42.682;23.294;2023-08-08T03:42:07;94687.16;;;17.15;80.91
11971;BME280;6045;42.682;23.294;2023-08-08T03:44:34;94693.66;;;17.14;80.53
11971;BME280;6045;42.682;23.294;2023-08-08T03:47:00;94699.59;;;17.10;79.47
11971;BME280;6045;42.682;23.294;2023-08-08T03:49:27;94689.06;;;17.19;80.47
11971;BME280;6045;42.682;23.294;2023-08-08T03:51:54;94683.13;;;17.22;78.96
11971;BME280;6045;42.682;23.294;2023-08-08T03:54:21;94673.94;;;17.23;80.05
11971;BME280;6045;42.682;23.294;2023-08-08T03:56:47;94679.66;;;17.57;80.05
11971;BME280;6045;42.682;23.294;2023-08-08T03:59:15;94675.59;;;17.54;77.07
11971;BME280;6045;42.682;23.294;2023-08-08T04:01:42;94676.63;;;17.43;77.17
11971;BME280;6045;42.682;23.294;2023-08-08T04:04:09;94683.13;;;17.32;77.81
11971;BME280;6045;42.682;23.294;2023-08-08T04:06:36;94693.94;;;17.37;78.92
11971;BME280;6045;42.682;23.294;2023-08-08T04:09:02;94702.59;;;17.90;79.58
11971;BME280;6045;42.682;23.294;2023-08-08T04:11:29;94706.72;;;18.61;79.47
11971;BME280;6045;42.682;23.294;2023-08-08T04:13:56;94705.16;;;19.04;73.51
11971;BME280;6045;42.682;23.294;2023-08-08T04:16:24;94711.06;;;19.55;71.63
11971;BME280;6045;42.682;23.294;2023-08-08T04:18:51;94709.06;;;19.70;70.86
11971;BME280;6045;42.682;23.294;2023-08-08T04:21:18;94709.56;;;20.06;70.88
11971;BME280;6045;42.682;23.294;2023-08-08T04:23:45;94712.56;;;20.33;69.11
11971;BME280;6045;42.682;23.294;2023-08-08T04:26:11;94712.72;;;20.66;68.25
11971;BME280;6045;42.682;23.294;2023-08-08T04:28:40;94724.91;;;20.92;68.04
11971;BME280;6045;42.682;23.294;2023-08-08T04:31:06;94727.97;;;21.09;64.10
11971;BME280;6045;42.682;23.294;2023-08-08T04:33:35;94730.06;;;20.93;66.82
11971;BME280;6045;42.682;23.294;2023-08-08T04:36:01;94733.78;;;21.21;66.36
11971;BME280;6045;42.682;23.294;2023-08-08T04:38:28;94729.59;;;21.66;65.34
11971;BME280;6045;42.682;23.294;2023-08-08T04:40:55;94720.94;;;22.28;62.68
11971;BME280;6045;42.682;23.294;2023-08-08T04:43:22;94712.38;;;22.35;61.83
11971;BME280;6045;42.682;23.294;2023-08-08T04:45:48;94701.59;;;22.57;58.82
11971;BME280;6045;42.682;23.294;2023-08-08T04:48:15;94700.09;;;22.37;59.91
11971;BME280;6045;42.682;23.294;2023-08-08T04:50:45;94713.31;;;21.79;58.59
11971;BME280;6045;42.682;23.294;2023-08-08T04:53:12;94725.59;;;21.02;61.86
11971;BME280;6045;42.682;23.294;2023-08-08T04:55:39;94735.38;;;20.80;63.99
11971;BME280;6045;42.682;23.294;2023-08-08T04:58:06;94745.00;;;20.49;65.57
11971;BME280;6045;42.682;23.294;2023-08-08T05:00:33;94754.28;;;20.90;69.09
11971;BME280;6045;42.682;23.294;2023-08-08T05:03:00;94751.38;;;21.29;68.53
11971;BME280;6045;42.682;23.294;2023-08-08T05:05:27;94762.38;;;21.93;62.67
11971;BME280;6045;42.682;23.294;2023-08-08T05:07:55;94766.53;;;22.23;62.44
11971;BME280;6045;42.682;23.294;2023-08-08T05:10:22;94768.13;;;22.56;60.82
11971;BME280;6045;42.682;23.294;2023-08-08T05:12:49;94779.75;;;22.29;61.49
11971;BME280;6045;42.682;23.294;2023-08-08T05:15:16;94779.16;;;21.63;58.43
11971;BME280;6045;42.682;23.294;2023-08-08T05:17:43;94792.69;;;21.49;61.15
11971;BME280;6045;42.682;23.294;2023-08-08T05:20:10;94794.41;;;21.22;61.71
11971;BME280;6045;42.682;23.294;2023-08-08T05:22:37;94785.22;;;20.70;62.94
11971;BME280;6045;42.682;23.294;2023-08-08T05:25:06;94796.69;;;20.38;63.48
11971;BME280;6045;42.682;23.294;2023-08-08T05:27:33;94792.13;;;19.95;66.43
11971;BME280;6045;42.682;23.294;2023-08-08T05:30:00;94790.88;;;19.88;64.63
11971;BME280;6045;42.682;23.294;2023-08-08T05:32:27;94794.72;;;19.76;65.54
11971;BME280;6045;42.682;23.294;2023-08-08T05:34:53;94796.00;;;19.89;66.75
11971;BME280;6045;42.682;23.294;2023-08-08T05:37:20;94814.44;;;20.26;65.26
11971;BME280;6045;42.682;23.294;2023-08-08T05:39:47;94821.47;;;20.61;65.88
11971;BME280;6045;42.682;23.294;2023-08-08T05:42:15;94813.41;;;20.51;64.17
11971;BME280;6045;42.682;23.294;2023-08-08T05:44:42;94815.56;;;20.54;64.58
11971;BME280;6045;42.682;23.294;2023-08-08T05:47:09;94823.88;;;20.62;65.66
11971;BME280;6045;42.682;23.294;2023-08-08T05:49:37;94832.66;;;20.78;62.55
11971;BME280;6045;42.682;23.294;2023-08-08T05:52:05;94830.91;;;20.39;62.63
11971;BME280;6045;42.682;23.294;2023-08-08T05:54:32;94827.78;;;20.22;65.10
11971;BME280;6045;42.682;23.294;2023-08-08T05:56:59;94828.34;;;20.14;64.33
11971;BME280;6045;42.682;23.294;2023-08-08T05:59:27;94836.88;;;20.36;64.42
11971;BME280;6045;42.682;23.294;2023-08-08T06:01:53;94845.97;;;20.22;64.02
11971;BME280;6045;42.682;23.294;2023-08-08T06:04:20;94856.75;;;19.88;66.00
11971;BME280;6045;42.682;23.294;2023-08-08T06:06:47;94858.56;;;19.64;66.72
11971;BME280;6045;42.682;23.294;2023-08-08T06:09:15;94852.66;;;19.52;67.92
11971;BME280;6045;42.682;23.294;2023-08-08T06:11:42;94843.41;;;19.53;68.11
11971;BME280;6045;42.682;23.294;2023-08-08T06:14:09;94848.31;;;19.51;66.95
11971;BME280;6045;42.682;23.294;2023-08-08T06:16:37;94848.25;;;19.66;66.84
11971;BME280;6045;42.682;23.294;2023-08-08T06:19:04;94839.88;;;19.57;64.98
11971;BME280;6045;42.682;23.294;2023-08-08T06:21:31;94839.59;;;19.98;66.67
11971;BME280;6045;42.682;23.294;2023-08-08T06:23:58;94842.22;;;20.47;63.68
11971;BME280;6045;42.682;23.294;2023-08-08T06:26:25;94842.41;;;20.55;62.30
11971;BME280;6045;42.682;23.294;2023-08-08T06:28:52;94839.44;;;20.52;62.47
11971;BME280;6045;42.682;23.294;2023-08-08T06:31:18;94841.94;;;20.77;62.03
11971;BME280;6045;42.682;23.294;2023-08-08T06:33:47;94842.41;;;20.84;62.56
11971;BME280;6045;42.682;23.294;2023-08-08T06:36:14;94841.78;;;21.16;62.79
11971;BME280;6045;42.682;23.294;2023-08-08T06:38:40;94834.06;;;21.46;59.83
11971;BME280;6045;42.682;23.294;2023-08-08T06:41:08;94824.03;;;21.23;60.68
11971;BME280;6045;42.682;23.294;2023-08-08T06:43:35;94829.53;;;21.18;60.91
11971;BME280;6045;42.682;23.294;2023-08-08T06:46:02;94831.47;;;21.36;60.91
11971;BME280;6045;42.682;23.294;2023-08-08T06:48:28;94840.47;;;21.55;60.78
11971;BME280;6045;42.682;23.294;2023-08-08T06:50:56;94835.53;;;22.00;58.24
11971;BME280;6045;42.682;23.294;2023-08-08T06:53:23;94831.03;;;22.41;53.68
11971;BME280;6045;42.682;23.294;2023-08-08T06:55:50;94835.19;;;22.20;53.10
11971;BME280;6045;42.682;23.294;2023-08-08T06:58:17;94849.41;;;22.17;52.76
11971;BME280;6045;42.682;23.294;2023-08-08T07:00:44;94837.72;;;22.48;52.22
11971;BME280;6045;42.682;23.294;2023-08-08T07:03:10;94840.50;;;22.62;51.76
11971;BME280;6045;42.682;23.294;2023-08-08T07:05:37;94840.13;;;22.82;48.29
11971;BME280;6045;42.682;23.294;2023-08-08T07:08:06;94840.78;;;23.06;49.68
11971;BME280;6045;42.682;23.294;2023-08-08T07:10:34;94844.56;;;22.78;49.95
11971;BME280;6045;42.682;23.294;2023-08-08T07:13:01;94838.84;;;22.80;49.79
11971;BME280;6045;42.682;23.294;2023-08-08T07:15:28;94829.03;;;22.92;50.33
11971;BME280;6045;42.682;23.294;2023-08-08T07:17:55;94831.06;;;23.28;49.30
11971;BME280;6045;42.682;23.294;2023-08-08T07:20:22;94832.91;;;23.19;48.39
11971;BME280;6045;42.682;23.294;2023-08-08T07:22:51;94839.75;;;23.02;49.53
11971;BME280;6045;42.682;23.294;2023-08-08T07:25:19;94826.53;;;23.23;46.61
11971;BME280;6045;42.682;23.294;2023-08-08T07:27:46;94840.50;;;22.62;48.90
11971;BME280;6045;42.682;23.294;2023-08-08T07:30:12;94844.28;;;22.80;50.27
11971;BME280;6045;42.682;23.294;2023-08-08T07:32:39;94837.63;;;22.99;48.47
11971;BME280;6045;42.682;23.294;2023-08-08T07:35:06;94848.13;;;22.92;47.50
11971;BME280;6045;42.682;23.294;2023-08-08T07:37:35;94845.22;;;22.89;48.69
11971;BME280;6045;42.682;23.294;2023-08-08T07:40:02;94843.22;;;23.35;49.29
11971;BME280;6045;42.682;23.294;2023-08-08T07:42:31;94851.03;;;23.91;47.38
11971;BME280;6045;42.682;23.294;2023-08-08T07:44:58;94845.34;;;24.01;47.54
11971;BME280;6045;42.682;23.294;2023-08-08T07:47:25;94849.59;;;24.07;45.28
11971;BME280;6045;42.682;23.294;2023-08-08T07:49:54;94846.44;;;24.00;44.18
11971;BME280;6045;42.682;23.294;2023-08-08T07:52:22;94840.81;;;23.47;46.09
11971;BME280;6045;42.682;23.294;2023-08-08T07:54:49;94832.00;;;23.23;45.58
11971;BME280;6045;42.682;23.294;2023-08-08T07:57:15;94834.13;;;23.12;46.36
11971;BME280;6045;42.682;23.294;2023-08-08T07:59:44;94839.88;;;23.25;47.03
11971;BME280;6045;42.682;23.294;2023-08-08T08:02:10;94842.13;;;23.36;45.36
11971;BME280;6045;42.682;23.294;2023-08-08T08:04:37;94843.81;;;23.19;45.61
11971;BME280;6045;42.682;23.294;2023-08-08T08:07:04;94844.03;;;23.22;45.56
11971;BME280;6045;42.682;23.294;2023-08-08T08:09:31;94840.16;;;23.77;46.77
11971;BME280;6045;42.682;23.294;2023-08-08T08:11:58;94839.81;;;24.28;45.74
11971;BME280;6045;42.682;23.294;2023-08-08T08:14:25;94837.69;;;24.47;43.89
11971;BME280;6045;42.682;23.294;2023-08-08T08:16:54;94831.84;;;24.85;45.35
11971;BME280;6045;42.682;23.294;2023-08-08T08:19:21;94838.53;;;25.01;42.99
11971;BME280;6045;42.682;23.294;2023-08-08T08:21:48;94843.44;;;24.82;45.08
11971;BME280;6045;42.682;23.294;2023-08-08T08:24:15;94842.44;;;24.56;45.33
11971;BME280;6045;42.682;23.294;2023-08-08T08:26:42;94847.13;;;24.19;44.43
11971;BME280;6045;42.682;23.294;2023-08-08T08:29:08;94840.88;;;24.41;43.77
11971;BME280;6045;42.682;23.294;2023-08-08T08:31:35;94850.50;;;24.38;43.58
11971;BME280;6045;42.682;23.294;2023-08-08T08:34:05;94848.25;;;23.69;44.42
11971;BME280;6045;42.682;23.294;2023-08-08T08:36:31;94846.81;;;23.03;46.15
11971;BME280;6045;42.682;23.294;2023-08-08T08:38:58;94846.06;;;22.71;48.35
11971;BME280;6045;42.682;23.294;2023-08-08T08:41:26;94847.31;;;22.78;48.80
11971;BME280;6045;42.682;23.294;2023-08-08T08:43:54;94837.84;;;23.17;46.92
11971;BME280;6045;42.682;23.294;2023-08-08T08:46:22;94850.19;;;23.55;45.94
11971;BME280;6045;42.682;23.294;2023-08-08T08:48:49;94846.19;;;23.39;45.68
11971;BME280;6045;42.682;23.294;2023-08-08T08:51:18;94847.22;;;23.10;46.21
11971;BME280;6045;42.682;23.294;2023-08-08T08:53:44;94845.91;;;22.94;48.10
11971;BME280;6045;42.682;23.294;2023-08-08T08:56:12;94842.63;;;23.25;47.61
11971;BME280;6045;42.682;23.294;2023-08-08T08:58:39;94853.72;;;23.01;46.41
11971;BME280;6045;42.682;23.294;2023-08-08T09:01:08;94842.72;;;23.20;48.44
11971;BME280;6045;42.682;23.294;2023-08-08T09:03:35;94851.50;;;23.71;45.07
11971;BME280;6045;42.682;23.294;2023-08-08T09:06:02;94840.88;;;24.05;44.98
11971;BME280;6045;42.682;23.294;2023-08-08T09:08:32;94847.69;;;24.52;44.82
11971;BME280;6045;42.682;23.294;2023-08-08T09:11:00;94836.59;;;24.48;44.35
11971;BME280;6045;42.682;23.294;2023-08-08T09:13:26;94842.69;;;24.23;42.79
11971;BME280;6045;42.682;23.294;2023-08-08T09:15:53;94839.81;;;24.28;42.33
11971;BME280;6045;42.682;23.294;2023-08-08T09:18:23;94829.19;;;23.91;42.06
11971;BME280;6045;42.682;23.294;2023-08-08T09:20:50;94843.16;;;24.47;44.09
11971;BME280;6045;42.682;23.294;2023-08-08T09:23:17;94843.78;;;24.89;43.85
11971;BME280;6045;42.682;23.294;2023-08-08T09:25:45;94829.00;;;25.86;42.11
11971;BME280;6045;42.682;23.294;2023-08-08T09:28:12;94834.38;;;26.51;39.67
11971;BME280;6045;42.682;23.294;2023-08-08T09:30:38;94836.75;;;26.69;39.37
11971;BME280;6045;42.682;23.294;2023-08-08T09:33:07;94845.97;;;26.22;37.63
11971;BME280;6045;42.682;23.294;2023-08-08T09:35:37;94848.75;;;25.57;39.13
11971;BME280;6045;42.682;23.294;2023-08-08T09:38:04;94849.13;;;25.33;40.56
11971;BME280;6045;42.682;23.294;2023-08-08T09:40:31;94868.25;;;25.55;40.10
11971;BME280;6045;42.682;23.294;2023-08-08T09:42:59;94850.75;;;25.73;37.95
11971;BME280;6045;42.682;23.294;2023-08-08T09:45:26;94853.63;;;25.60;39.65
11971;BME280;6045;42.682;23.294;2023-08-08T09:47:53;94859.47;;;26.01;39.30
11971;BME280;6045;42.682;23.294;2023-08-08T09:50:21;94845.50;;;25.46;40.89
11971;BME280;6045;42.682;23.294;2023-08-08T09:52:49;94854.56;;;25.55;40.78
11971;BME280;6045;42.682;23.294;2023-08-08T09:55:18;94853.44;;;25.56;38.29
11971;BME280;6045;42.682;23.294;2023-08-08T09:57:46;94848.78;;;25.26;38.64
11971;BME280;6045;42.682;23.294;2023-08-08T10:00:15;94847.50;;;25.32;38.27
11971;BME280;6045;42.682;23.294;2023-08-08T10:02:43;94849.41;;;25.23;38.77
11971;BME280;6045;42.682;23.294;2023-08-08T10:05:11;94840.59;;;25.74;39.96
11971;BME280;6045;42.682;23.294;2023-08-08T10:07:39;94844.00;;;25.97;38.69
11971;BME280;6045;42.682;23.294;2023-08-08T10:10:07;94839.38;;;26.48;39.11
11971;BME280;6045;42.682;23.294;2023-08-08T10:12:36;94832.41;;;26.68;37.74
11971;BME280;6045;42.682;23.294;2023-08-08T10:15:06;94846.47;;;26.50;39.03
11971;BME280;6045;42.682;23.294;2023-08-08T10:17:36;94845.81;;;26.27;37.96
11971;BME280;6045;42.682;23.294;2023-08-08T10:20:05;94845.50;;;26.54;37.73
11971;BME280;6045;42.682;23.294;2023-08-08T10:22:37;94848.72;;;26.22;36.92
11971;BME280;6045;42.682;23.294;2023-08-08T10:25:06;94847.34;;;25.68;37.81
11971;BME280;6045;42.682;23.294;2023-08-08T10:27:34;94843.00;;;25.84;38.89
11971;BME280;6045;42.682;23.294;2023-08-08T10:30:03;94842.75;;;26.54;38.95
11971;BME280;6045;42.682;23.294;2023-08-08T10:32:39;94839.00;;;27.01;36.77
11971;BME280;6045;42.682;23.294;2023-08-08T10:35:07;94843.28;;;27.11;36.35
11971;BME280;6045;42.682;23.294;2023-08-08T10:37:35;94829.50;;;26.82;35.19
11971;BME280;6045;42.682;23.294;2023-08-08T10:40:03;94836.47;;;26.36;37.16
11971;BME280;6045;42.682;23.294;2023-08-08T10:42:33;94833.59;;;26.33;37.22
11971;BME280;6045;42.682;23.294;2023-08-08T10:45:09;94832.59;;;26.46;36.65
11971;BME280;6045;42.682;23.294;2023-08-08T10:47:37;94827.91;;;26.55;37.89
11971;BME280;6045;42.682;23.294;2023-08-08T10:50:07;94815.19;;;27.23;37.60
11971;BME280;6045;42.682;23.294;2023-08-08T10:52:38;94818.34;;;27.71;35.13
11971;BME280;6045;42.682;23.294;2023-08-08T10:55:06;94818.34;;;27.71;37.11
11971;BME280;6045;42.682;23.294;2023-08-08T10:57:53;94818.78;;;27.82;35.99
11971;BME280;6045;42.682;23.294;2023-08-08T11:00:21;94821.81;;;27.59;36.18
11971;BME280;6045;42.682;23.294;2023-08-08T11:02:50;94827.53;;;27.46;35.21
11971;BME280;6045;42.682;23.294;2023-08-08T11:05:19;94810.78;;;27.39;34.57
11971;BME280;6045;42.682;23.294;2023-08-08T11:07:46;94813.41;;;27.56;35.40
11971;BME280;6045;42.682;23.294;2023-08-08T11:10:13;94812.16;;;27.07;35.64
11971;BME280;6045;42.682;23.294;2023-08-08T11:12:40;94814.38;;;27.22;37.31
11971;BME280;6045;42.682;23.294;2023-08-08T11:15:08;94817.31;;;27.55;35.78
11971;BME280;6045;42.682;23.294;2023-08-08T11:17:36;94820.03;;;27.84;35.89
11971;BME280;6045;42.682;23.294;2023-08-08T11:20:03;94813.97;;;28.20;36.53
11971;BME280;6045;42.682;23.294;2023-08-08T11:22:33;94823.91;;;28.54;35.73
11971;BME280;6045;42.682;23.294;2023-08-08T11:24:59;94822.81;;;28.67;32.95
11971;BME280;6045;42.682;23.294;2023-08-08T11:27:28;94817.94;;;28.52;34.32
11971;BME280;6045;42.682;23.294;2023-08-08T11:29:56;94817.72;;;28.57;33.44
11971;BME280;6045;42.682;23.294;2023-08-08T11:32:24;94808.25;;;28.45;32.55
11971;BME280;6045;42.682;23.294;2023-08-08T11:34:52;94820.44;;;28.24;34.48
11971;BME280;6045;42.682;23.294;2023-08-08T11:37:19;94809.81;;;28.34;33.81
11971;BME280;6045;42.682;23.294;2023-08-08T11:39:47;94812.84;;;28.41;33.51
11971;BME280;6045;42.682;23.294;2023-08-08T11:42:14;94805.09;;;28.56;34.47
11971;BME280;6045;42.682;23.294;2023-08-08T11:44:42;94812.38;;;28.60;34.26
11971;BME280;6045;42.682;23.294;2023-08-08T11:47:08;94799.31;;;28.69;34.25
11971;BME280;6045;42.682;23.294;2023-08-08T11:49:40;94797.66;;;28.89;34.30
11971;BME280;6045;42.682;23.294;2023-08-08T11:52:07;94802.94;;;28.82;33.33
11971;BME280;6045;42.682;23.294;2023-08-08T11:54:36;94793.91;;;28.93;34.43
11971;BME280;6045;42.682;23.294;2023-08-08T11:57:05;94792.28;;;29.04;33.80
11971;BME280;6045;42.682;23.294;2023-08-08T11:59:32;94793.66;;;28.86;33.21
11971;BME280;6045;42.682;23.294;2023-08-08T12:01:58;94797.59;;;28.65;33.67
11971;BME280;6045;42.682;23.294;2023-08-08T12:04:26;94795.06;;;28.39;33.27
11971;BME280;6045;42.682;23.294;2023-08-08T12:07:00;94788.78;;;28.18;33.68
11971;BME280;6045;42.682;23.294;2023-08-08T12:09:30;94783.38;;;27.80;34.08
11971;BME280;6045;42.682;23.294;2023-08-08T12:11:59;94781.63;;;27.75;35.69
11971;BME280;6045;42.682;23.294;2023-08-08T12:14:27;94784.53;;;27.79;34.89
11971;BME280;6045;42.682;23.294;2023-08-08T12:16:54;94778.66;;;27.60;35.73
11971;BME280;6045;42.682;23.294;2023-08-08T12:19:22;94769.69;;;27.51;36.05
11971;BME280;6045;42.682;23.294;2023-08-08T12:21:50;94771.16;;;27.10;37.85
11971;BME280;6045;42.682;23.294;2023-08-08T12:24:17;94754.22;;;27.38;36.27
11971;BME280;6045;42.682;23.294;2023-08-08T12:26:44;94753.84;;;27.48;35.61
11971;BME280;6045;42.682;23.294;2023-08-08T12:29:11;94749.78;;;26.87;35.75
11971;BME280;6045;42.682;23.294;2023-08-08T12:31:39;94752.75;;;26.47;37.06
11971;BME280;6045;42.682;23.294;2023-08-08T12:34:07;94746.03;;;26.28;37.87
11971;BME280;6045;42.682;23.294;2023-08-08T12:36:34;94755.94;;;26.67;39.37
11971;BME280;6045;42.682;23.294;2023-08-08T12:39:01;94751.66;;;26.95;37.86
11971;BME280;6045;42.682;23.294;2023-08-08T12:41:28;94755.91;;;27.22;37.96
11971;BME280;6045;42.682;23.294;2023-08-08T12:43:55;94751.44;;;27.46;35.74
11971;BME280;6045;42.682;23.294;2023-08-08T12:46:23;94758.97;;;27.58;35.80
11971;BME280;6045;42.682;23.294;2023-08-08T12:48:51;94749.88;;;27.37;35.92
11971;BME280;6045;42.682;23.294;2023-08-08T12:51:18;94754.06;;;27.43;36.37
11971;BME280;6045;42.682;23.294;2023-08-08T12:53:44;94755.03;;;27.38;36.51
11971;BME280;6045;42.682;23.294;2023-08-08T12:56:11;94749.84;;;27.45;36.85
11971;BME280;6045;42.682;23.294;2023-08-08T12:58:38;94751.06;;;27.56;36.26
11971;BME280;6045;42.682;23.294;2023-08-08T13:01:06;94748.38;;;27.48;36.39